createdAt,value
2017-08-04T00:01:56.216Z,83.80
2017-08-04T00:04:23.768Z,83.70
2017-08-04T00:06:51.300Z,84.00
2017-08-04T00:09:19.568Z,83.80
2017-08-04T00:11:47.835Z,84.00
2017-08-04T00:14:15.357Z,83.30
2017-08-04T00:16:42.860Z,83.00
2017-08-04T00:19:11.392Z,83.50
2017-08-04T00:21:38.899Z,83.40
2017-08-04T00:24:07.525Z,83.50
2017-08-04T00:26:35.048Z,83.40
2017-08-04T00:29:03.330Z,83.40
2017-08-04T00:31:31.598Z,83.70
2017-08-04T00:33:59.894Z,84.30
2017-08-04T00:36:27.395Z,84.30
2017-08-04T00:38:54.939Z,84.70
2017-08-04T00:41:22.465Z,84.70
2017-08-04T00:43:50.030Z,85.00
2017-08-04T00:46:17.615Z,85.10
2017-08-04T00:48:45.151Z,85.80
2017-08-04T00:51:12.670Z,85.60
2017-08-04T00:53:40.400Z,85.80
2017-08-04T00:56:07.931Z,85.60
2017-08-04T00:58:35.511Z,85.40
2017-08-04T01:01:03.026Z,85.60
2017-08-04T01:03:31.294Z,84.50
2017-08-04T01:05:59.803Z,84.80
2017-08-04T01:08:27.362Z,84.80
2017-08-04T01:10:54.923Z,85.10
2017-08-04T01:13:22.466Z,85.30
2017-08-04T01:15:49.972Z,85.70
2017-08-04T01:18:17.599Z,86.00
2017-08-04T01:20:45.163Z,86.60
2017-08-04T01:23:12.725Z,86.00
2017-08-04T01:25:40.230Z,86.00
2017-08-04T01:28:07.752Z,85.70
2017-08-04T01:30:35.291Z,86.20
2017-08-04T01:33:02.811Z,86.10
2017-08-04T01:35:30.412Z,86.10
2017-08-04T01:37:57.943Z,85.80
2017-08-04T01:40:26.215Z,86.50
2017-08-04T01:42:54.935Z,85.90
2017-08-04T01:45:22.483Z,85.90
2017-08-04T01:47:49.988Z,86.30
2017-08-04T01:50:17.511Z,86.60
2017-08-04T01:52:45.023Z,87.00
2017-08-04T01:55:12.543Z,86.70
2017-08-04T01:57:40.716Z,86.30
2017-08-04T02:00:08.256Z,86.40
2017-08-04T02:02:35.763Z,85.60
2017-08-04T02:05:03.293Z,85.80
2017-08-04T02:07:30.801Z,86.20
2017-08-04T02:09:59.071Z,86.60
2017-08-04T02:12:27.379Z,86.90
2017-08-04T02:14:54.935Z,86.70
2017-08-04T02:17:22.500Z,86.90
2017-08-04T02:19:50.007Z,87.00
2017-08-04T02:22:17.615Z,86.60
2017-08-04T02:24:45.179Z,86.60
2017-08-04T02:27:12.726Z,86.40
2017-08-04T02:29:40.231Z,86.30
2017-08-04T02:32:07.850Z,85.80
2017-08-04T02:34:36.131Z,86.10
2017-08-04T02:37:03.668Z,86.80
2017-08-04T02:39:31.251Z,87.70
2017-08-04T02:41:58.755Z,86.00
2017-08-04T02:44:26.283Z,86.10
2017-08-04T02:46:53.787Z,86.00
2017-08-04T02:49:22.084Z,85.60
2017-08-04T02:51:49.592Z,86.50
2017-08-04T02:54:17.217Z,85.30
2017-08-04T02:56:44.718Z,85.20
2017-08-04T02:59:12.239Z,85.10
2017-08-04T03:01:39.747Z,85.00
2017-08-04T03:04:07.348Z,84.80
2017-08-04T03:06:34.850Z,84.90
2017-08-04T03:09:02.355Z,85.70
2017-08-04T03:11:30.223Z,84.70
2017-08-04T03:13:57.727Z,84.80
2017-08-04T03:16:25.238Z,84.90
2017-08-04T03:18:52.738Z,84.90
2017-08-04T03:21:20.267Z,84.90
2017-08-04T03:23:47.771Z,85.00
2017-08-04T03:26:15.291Z,85.00
2017-08-04T03:28:42.791Z,85.00
2017-08-04T03:31:10.304Z,85.30
2017-08-04T03:33:37.803Z,85.30
2017-08-04T03:36:05.343Z,85.20
2017-08-04T03:38:32.847Z,85.10
2017-08-04T03:41:01.119Z,85.50
2017-08-04T03:43:29.402Z,86.00
2017-08-04T03:45:57.662Z,85.70
2017-08-04T03:48:25.952Z,85.60
2017-08-04T03:50:54.735Z,85.70
2017-08-04T03:53:23.023Z,85.70
2017-08-04T03:55:50.591Z,85.70
2017-08-04T03:58:18.115Z,85.70
2017-08-04T04:00:45.615Z,85.40
2017-08-04T04:03:13.136Z,85.90
2017-08-04T04:05:41.443Z,85.90
2017-08-04T04:08:08.976Z,85.70
2017-08-04T04:10:38.104Z,85.40
2017-08-04T04:13:05.608Z,85.40
2017-08-04T04:15:33.212Z,85.30
2017-08-04T04:18:00.719Z,85.50
2017-08-04T04:20:28.238Z,85.10
2017-08-04T04:22:55.747Z,85.00
2017-08-04T04:25:23.271Z,84.90
2017-08-04T04:27:50.771Z,84.70
2017-08-04T04:30:19.054Z,84.30
2017-08-04T04:32:49.159Z,84.10
2017-08-04T04:35:17.472Z,83.70
2017-08-04T04:37:44.979Z,83.70
2017-08-04T04:40:12.620Z,83.40
2017-08-04T04:42:40.160Z,83.50
2017-08-04T04:45:07.667Z,83.70
2017-08-04T04:47:35.202Z,83.10
2017-08-04T04:50:02.703Z,82.80
2017-08-04T04:52:30.987Z,82.60
2017-08-04T04:54:59.279Z,82.30
2017-08-04T04:57:26.836Z,82.40
2017-08-04T04:59:54.399Z,82.10
2017-08-04T05:02:21.931Z,82.00
2017-08-04T05:04:50.942Z,82.10
2017-08-04T05:07:18.454Z,82.00
2017-08-04T05:09:45.976Z,82.10
2017-08-04T05:12:13.483Z,81.80
2017-08-04T05:14:41.084Z,82.90
2017-08-04T05:17:08.587Z,81.70
2017-08-04T05:19:36.111Z,81.70
2017-08-04T05:22:03.615Z,81.20
2017-08-04T05:24:31.135Z,81.10
2017-08-04T05:26:58.672Z,80.70
2017-08-04T05:29:26.190Z,80.70
2017-08-04T05:31:53.691Z,80.10
2017-08-04T05:34:21.254Z,80.20
2017-08-04T05:36:49.311Z,79.70
2017-08-04T05:39:16.815Z,79.80
2017-08-04T05:41:44.335Z,79.70
2017-08-04T05:44:11.842Z,79.50
2017-08-04T05:46:39.363Z,78.70
2017-08-04T05:49:06.907Z,77.90
2017-08-04T05:51:34.437Z,77.80
2017-08-04T05:54:02.708Z,77.40
2017-08-04T05:56:31.010Z,78.50
2017-08-04T05:58:58.520Z,77.60
2017-08-04T06:01:26.130Z,78.10
2017-08-04T06:03:53.636Z,77.50
2017-08-04T06:06:21.150Z,76.80
2017-08-04T06:08:48.707Z,76.90
2017-08-04T06:11:16.222Z,77.80
2017-08-04T06:13:43.733Z,75.70
2017-08-04T06:16:11.279Z,76.40
2017-08-04T06:18:38.783Z,75.80
2017-08-04T06:21:06.290Z,75.10
2017-08-04T06:23:33.871Z,76.50
2017-08-04T06:26:01.379Z,74.50
2017-08-04T06:28:28.974Z,74.90
2017-08-04T06:30:56.471Z,75.00
2017-08-04T06:33:24.095Z,73.70
2017-08-04T06:35:51.602Z,72.60
2017-08-04T06:38:19.127Z,73.00
2017-08-04T06:40:46.636Z,72.50
2017-08-04T06:43:14.942Z,72.80
2017-08-04T06:45:42.452Z,72.80
2017-08-04T06:48:35.659Z,71.50
2017-08-04T06:51:15.115Z,71.90
2017-08-04T06:53:54.643Z,72.40
2017-08-04T06:56:22.152Z,73.00
2017-08-04T06:58:49.670Z,72.20
2017-08-04T07:01:17.383Z,72.40
2017-08-04T07:03:44.906Z,70.40
2017-08-04T07:06:13.209Z,70.10
2017-08-04T07:08:40.739Z,68.30
2017-08-04T07:11:09.160Z,68.00
2017-08-04T07:13:36.683Z,68.20
2017-08-04T07:16:04.303Z,68.80
2017-08-04T07:18:31.808Z,67.70
2017-08-04T07:20:59.337Z,67.50
2017-08-04T07:23:26.842Z,67.50
2017-08-04T07:25:54.359Z,61.60
2017-08-04T07:28:22.172Z,62.80
2017-08-04T07:30:49.699Z,63.90
2017-08-04T07:33:17.194Z,63.50
2017-08-04T07:35:46.271Z,63.40
2017-08-04T07:38:13.870Z,63.40
2017-08-04T07:40:41.376Z,61.70
2017-08-04T07:43:08.895Z,65.00
2017-08-04T07:45:36.400Z,58.80
2017-08-04T07:48:03.915Z,56.60
2017-08-04T07:50:31.811Z,55.90
2017-08-04T07:52:59.558Z,55.10
2017-08-04T07:55:27.071Z,54.50
2017-08-04T07:57:55.470Z,53.40
2017-08-04T08:00:23.031Z,53.30
2017-08-04T08:02:50.535Z,53.20
2017-08-04T08:05:18.050Z,52.60
2017-08-04T08:07:45.607Z,50.60
2017-08-04T08:10:13.135Z,47.40
2017-08-04T08:12:41.407Z,47.60
2017-08-04T08:15:09.000Z,47.50
2017-08-04T08:17:36.564Z,48.10
2017-08-04T08:20:04.086Z,47.40
2017-08-04T08:22:32.398Z,48.90
2017-08-04T08:24:59.961Z,48.70
2017-08-04T08:27:27.463Z,48.60
2017-08-04T08:29:55.075Z,47.00
2017-08-04T08:32:22.636Z,46.80
2017-08-04T08:34:50.186Z,46.90
2017-08-04T08:37:17.751Z,48.00
2017-08-04T08:39:45.255Z,47.10
2017-08-04T08:42:12.866Z,46.50
2017-08-04T08:44:40.429Z,46.00
2017-08-04T08:47:07.951Z,46.30
2017-08-04T08:49:36.223Z,45.40
2017-08-04T08:52:03.822Z,45.80
2017-08-04T08:54:31.379Z,46.60
2017-08-04T08:56:59.104Z,46.10
2017-08-04T08:59:26.607Z,45.00
2017-08-04T09:01:54.154Z,45.80
2017-08-04T09:04:21.654Z,48.50
2017-08-04T09:06:49.184Z,46.30
2017-08-04T09:09:16.686Z,44.10
2017-08-04T09:11:44.192Z,45.40
2017-08-04T09:14:11.743Z,45.70
2017-08-04T09:16:39.248Z,46.10
2017-08-04T09:19:06.862Z,45.70
2017-08-04T09:21:35.127Z,45.70
2017-08-04T09:24:03.419Z,46.70
2017-08-04T09:26:31.695Z,46.70
2017-08-04T09:28:59.211Z,46.50
2017-08-04T09:31:26.715Z,47.50
2017-08-04T09:33:54.631Z,46.00
2017-08-04T09:36:22.135Z,46.10
2017-08-04T09:38:49.658Z,46.40
2017-08-04T09:41:17.159Z,46.00
2017-08-04T09:43:44.668Z,44.50
2017-08-04T09:46:12.268Z,44.80
2017-08-04T09:48:39.827Z,45.00
2017-08-04T09:51:07.354Z,45.10
2017-08-04T09:53:35.623Z,45.30
2017-08-04T09:56:03.148Z,45.30
2017-08-04T09:58:30.674Z,44.20
2017-08-04T10:00:58.494Z,45.00
2017-08-04T10:03:26.003Z,44.90
2017-08-04T10:05:53.523Z,45.80
2017-08-04T10:08:21.027Z,45.30
2017-08-04T10:10:48.555Z,45.00
2017-08-04T10:13:16.819Z,45.60
2017-08-04T10:15:45.087Z,44.80
2017-08-04T10:18:12.685Z,44.70
2017-08-04T10:20:40.695Z,46.00
2017-08-04T10:23:08.215Z,45.00
2017-08-04T10:25:35.767Z,45.10
2017-08-04T10:28:03.283Z,45.20
2017-08-04T10:30:30.783Z,45.60
2017-08-04T10:32:59.071Z,46.00
2017-08-04T10:35:26.623Z,45.30
2017-08-04T10:37:54.183Z,45.50
2017-08-04T10:40:21.690Z,46.40
2017-08-04T10:42:49.295Z,47.40
2017-08-04T10:45:16.799Z,48.20
2017-08-04T10:47:44.316Z,46.10
2017-08-04T10:50:12.693Z,46.70
2017-08-04T10:52:40.203Z,45.90
2017-08-04T10:55:07.720Z,46.10
2017-08-04T10:57:35.218Z,43.80
2017-08-04T11:00:02.735Z,45.20
2017-08-04T11:02:30.287Z,45.20
2017-08-04T11:04:57.838Z,43.80
2017-08-04T11:07:25.339Z,44.50
2017-08-04T11:09:52.843Z,43.60
2017-08-04T11:12:20.367Z,43.70
2017-08-04T11:14:47.870Z,43.50
2017-08-04T11:17:15.402Z,42.50
2017-08-04T11:19:43.706Z,41.70
2017-08-04T11:22:11.267Z,41.70
2017-08-04T11:24:38.777Z,41.30
2017-08-04T11:27:06.300Z,42.40
2017-08-04T11:29:33.807Z,42.20
2017-08-04T11:32:01.335Z,42.80
2017-08-04T11:34:28.855Z,42.30
2017-08-04T11:36:56.419Z,43.20
2017-08-04T11:39:23.975Z,44.60
2017-08-04T11:41:51.475Z,44.80
2017-08-04T11:44:18.991Z,44.70
2017-08-04T11:46:46.492Z,45.10
2017-08-04T11:49:14.011Z,46.10
2017-08-04T11:51:41.578Z,46.40
2017-08-04T11:54:09.126Z,46.80
2017-08-04T11:56:36.623Z,47.90
2017-08-04T11:59:04.118Z,47.80
2017-08-04T12:01:32.519Z,47.90
2017-08-04T12:04:00.028Z,47.90
2017-08-04T12:06:27.639Z,48.30
2017-08-04T12:08:55.143Z,48.40
2017-08-04T12:11:22.663Z,49.50
2017-08-04T12:13:51.091Z,47.30
2017-08-04T12:16:18.612Z,46.90
2017-08-04T12:18:46.531Z,48.00
2017-08-04T12:21:14.840Z,48.50
2017-08-04T12:23:42.395Z,48.40
2017-08-04T12:26:09.947Z,49.50
2017-08-04T12:28:37.507Z,49.70
2017-08-04T12:31:05.007Z,48.60
2017-08-04T12:33:32.530Z,48.60
2017-08-04T12:36:00.036Z,48.00
2017-08-04T12:38:27.555Z,48.00
2017-08-04T12:40:55.059Z,49.00
2017-08-04T12:43:22.659Z,48.80
2017-08-04T12:45:50.162Z,51.80
2017-08-04T12:48:17.683Z,48.30
2017-08-04T12:50:45.187Z,49.50
2017-08-04T12:53:12.707Z,50.00
2017-08-04T12:55:40.208Z,48.20
2017-08-04T12:58:07.715Z,49.80
2017-08-04T13:00:35.231Z,50.40
2017-08-04T13:03:03.494Z,49.90
2017-08-04T13:05:31.010Z,49.80
2017-08-04T13:07:58.515Z,50.30
2017-08-04T13:10:26.116Z,51.10
2017-08-04T13:12:53.627Z,51.60
2017-08-04T13:15:21.147Z,51.30
2017-08-04T13:17:48.651Z,52.50
2017-08-04T13:20:16.172Z,50.70
2017-08-04T13:22:43.708Z,50.70
2017-08-04T13:25:11.227Z,52.00
2017-08-04T13:27:38.743Z,51.20
2017-08-04T13:30:06.274Z,51.90
2017-08-04T13:32:33.844Z,54.30
2017-08-04T13:35:01.399Z,53.60
2017-08-04T13:37:28.919Z,53.10
2017-08-04T13:39:56.418Z,53.20
2017-08-04T13:42:23.967Z,53.40
2017-08-04T13:44:51.734Z,53.70
2017-08-04T13:47:19.292Z,53.70
2017-08-04T13:49:46.859Z,54.90
2017-08-04T13:52:14.410Z,55.10
2017-08-04T13:54:42.628Z,55.00
2017-08-04T13:57:10.147Z,54.60
2017-08-04T13:59:37.655Z,54.20
2017-08-04T14:02:05.262Z,55.10
2017-08-04T14:04:33.396Z,55.50
2017-08-04T14:07:00.911Z,55.00
2017-08-04T14:09:28.406Z,54.80
2017-08-04T14:11:55.966Z,55.50
2017-08-04T14:14:23.468Z,54.60
2017-08-04T14:16:51.027Z,55.30
2017-08-04T14:19:18.974Z,54.50
2017-08-04T14:21:47.247Z,54.10
2017-08-04T14:24:15.536Z,53.80
2017-08-04T14:26:43.627Z,53.70
2017-08-04T14:29:11.188Z,53.80
2017-08-04T14:31:38.703Z,53.80
2017-08-04T14:34:06.639Z,53.20
2017-08-04T14:36:34.167Z,52.90
2017-08-04T14:39:01.728Z,52.60
2017-08-04T14:41:29.554Z,55.90
2017-08-04T14:43:57.851Z,53.10
2017-08-04T14:46:25.658Z,52.50
2017-08-04T14:48:53.186Z,53.50
2017-08-04T14:51:20.743Z,54.30
2017-08-04T14:53:48.307Z,53.50
2017-08-04T14:56:15.826Z,52.20
2017-08-04T14:58:43.419Z,52.70
2017-08-04T15:01:10.974Z,53.70
2017-08-04T15:03:38.471Z,52.30
2017-08-04T15:06:06.097Z,53.70
2017-08-04T15:08:34.055Z,52.50
2017-08-04T15:11:01.643Z,49.30
2017-08-04T15:13:29.140Z,49.40
2017-08-04T15:15:56.667Z,42.20
2017-08-04T15:18:24.171Z,42.40
2017-08-04T15:20:52.459Z,42.80
2017-08-04T15:23:19.960Z,42.70
2017-08-04T15:25:47.491Z,42.30
2017-08-04T15:28:15.051Z,39.80
2017-08-04T15:30:42.550Z,37.30
2017-08-04T15:33:10.071Z,33.70
2017-08-04T15:35:37.575Z,31.30
2017-08-04T15:38:05.092Z,31.10
2017-08-04T15:40:32.638Z,30.20
2017-08-04T15:43:00.201Z,31.50
2017-08-04T15:45:27.707Z,31.50
2017-08-04T15:47:55.227Z,33.10
2017-08-04T15:50:23.327Z,34.00
2017-08-04T15:52:50.867Z,35.50
2017-08-04T15:55:18.735Z,36.40
2017-08-04T15:57:46.272Z,36.80
2017-08-04T16:00:14.478Z,38.10
2017-08-04T16:02:41.983Z,38.50
2017-08-04T16:05:10.271Z,36.70
2017-08-04T16:07:37.839Z,36.80
2017-08-04T16:10:05.359Z,33.40
2017-08-04T16:12:32.865Z,32.60
2017-08-04T16:15:00.382Z,32.60
2017-08-04T16:17:29.067Z,31.20
2017-08-04T16:19:57.370Z,31.70
2017-08-04T16:22:25.031Z,31.50
2017-08-04T16:24:52.592Z,29.90
2017-08-04T16:27:20.451Z,32.80
2017-08-04T16:29:47.956Z,35.20
2017-08-04T16:32:15.475Z,35.90
2017-08-04T16:34:42.979Z,36.80
2017-08-04T16:37:10.596Z,37.40
2017-08-04T16:39:38.111Z,39.30
2017-08-04T16:42:05.712Z,39.50
2017-08-04T16:44:33.271Z,41.20
2017-08-04T16:47:00.787Z,43.00
2017-08-04T16:49:28.293Z,43.20
2017-08-04T16:51:55.847Z,43.80
2017-08-04T16:54:23.354Z,45.10
2017-08-04T16:56:50.963Z,45.00
2017-08-04T16:59:18.467Z,45.00
2017-08-04T17:01:46.080Z,45.80
2017-08-04T17:04:13.583Z,45.60
2017-08-04T17:06:41.111Z,46.10
2017-08-04T17:09:08.607Z,46.70
2017-08-04T17:11:36.143Z,46.30
2017-08-04T17:14:03.648Z,47.30
2017-08-04T17:16:31.932Z,46.90
2017-08-04T17:19:00.237Z,47.40
2017-08-04T17:21:27.986Z,47.30
2017-08-04T17:23:55.648Z,47.30
2017-08-04T17:26:23.157Z,47.60
2017-08-04T17:28:50.728Z,46.20
2017-08-04T17:31:18.251Z,46.10
2017-08-04T17:33:45.783Z,46.10
2017-08-04T17:36:13.287Z,45.90
2017-08-04T17:38:40.812Z,45.70
2017-08-04T17:41:08.332Z,45.70
2017-08-04T17:43:36.619Z,46.10
2017-08-04T17:46:04.187Z,46.10
2017-08-04T17:48:32.199Z,46.10
2017-08-04T17:50:59.699Z,46.30
2017-08-04T17:53:27.998Z,45.10
2017-08-04T17:55:55.499Z,45.10
2017-08-04T17:58:35.142Z,45.90
2017-08-04T18:01:03.482Z,46.00
2017-08-04T18:03:30.983Z,46.30
2017-08-04T18:05:58.495Z,46.50
2017-08-04T18:08:26.049Z,46.90
2017-08-04T18:10:53.602Z,47.20
2017-08-04T18:13:21.114Z,47.70
2017-08-04T18:15:48.762Z,48.10
2017-08-04T18:18:16.375Z,48.60
2017-08-04T18:20:43.948Z,49.00
2017-08-04T18:23:12.259Z,49.50
2017-08-04T18:25:40.168Z,50.20
2017-08-04T18:28:08.982Z,51.80
2017-08-04T18:30:37.051Z,51.80
2017-08-04T18:33:04.570Z,52.10
2017-08-04T18:35:32.855Z,53.20
2017-08-04T18:38:01.404Z,53.40
2017-08-04T18:40:29.962Z,53.40
2017-08-04T18:42:57.550Z,54.00
2017-08-04T18:45:25.209Z,54.00
2017-08-04T18:47:52.734Z,54.30
2017-08-04T18:50:21.122Z,54.80
2017-08-04T18:52:49.080Z,54.80
2017-08-04T18:55:16.613Z,55.40
2017-08-04T18:57:44.968Z,55.10
2017-08-04T19:00:12.515Z,55.00
2017-08-04T19:02:40.041Z,55.20
2017-08-04T19:05:07.584Z,55.70
2017-08-04T19:07:35.088Z,56.20
2017-08-04T19:10:02.611Z,55.70
2017-08-04T19:12:30.156Z,56.00
2017-08-04T19:14:57.757Z,56.10
2017-08-04T19:17:25.263Z,56.30
2017-08-04T19:19:52.796Z,56.40
2017-08-04T19:22:20.300Z,57.10
2017-08-04T19:24:47.839Z,56.50
2017-08-04T19:27:15.407Z,57.50
2017-08-04T19:29:43.522Z,56.40
2017-08-04T19:32:11.027Z,56.10
2017-08-04T19:34:38.546Z,56.30
2017-08-04T19:37:06.050Z,56.80
2017-08-04T19:39:33.610Z,57.10
2017-08-04T19:42:01.111Z,57.30
2017-08-04T19:44:28.615Z,58.40
2017-08-04T19:46:56.188Z,58.10
2017-08-04T19:49:23.733Z,58.00
2017-08-04T19:51:51.256Z,58.20
2017-08-04T19:54:18.863Z,59.80
2017-08-04T19:56:46.425Z,59.90
2017-08-04T19:59:13.931Z,61.00
2017-08-04T20:01:41.603Z,61.50
2017-08-04T20:04:09.103Z,61.60
2017-08-04T20:06:36.619Z,62.10
2017-08-04T20:09:04.123Z,62.80
2017-08-04T20:11:31.675Z,63.20
2017-08-04T20:13:59.184Z,63.20
2017-08-04T20:16:27.387Z,63.70
2017-08-04T20:18:55.655Z,64.70
2017-08-04T20:21:23.924Z,64.70
2017-08-04T20:23:51.516Z,64.70
2017-08-04T20:26:19.088Z,65.10
2017-08-04T20:28:46.616Z,65.20
2017-08-04T20:31:14.908Z,66.10
2017-08-04T20:33:42.421Z,66.10
2017-08-04T20:36:10.077Z,66.40
2017-08-04T20:38:37.592Z,66.60
2017-08-04T20:41:05.189Z,67.70
2017-08-04T20:43:33.267Z,67.30
2017-08-04T20:46:00.771Z,67.20
2017-08-04T20:48:28.334Z,67.50
2017-08-04T20:50:55.892Z,67.70
2017-08-04T20:53:23.444Z,67.90
2017-08-04T20:55:50.963Z,68.10
2017-08-04T20:58:18.571Z,68.50
2017-08-04T21:00:46.097Z,69.00
2017-08-04T21:03:14.371Z,69.30
2017-08-04T21:05:42.699Z,69.60
2017-08-04T21:08:10.206Z,69.70
2017-08-04T21:10:37.728Z,69.90
2017-08-04T21:13:05.235Z,70.40
2017-08-04T21:15:33.546Z,71.10
2017-08-04T21:18:01.665Z,71.00
2017-08-04T21:20:29.195Z,71.40
2017-08-04T21:22:56.696Z,71.90
2017-08-04T21:25:24.967Z,72.60
2017-08-04T21:27:53.255Z,72.90
2017-08-04T21:30:21.522Z,72.90
2017-08-04T21:32:49.817Z,73.80
2017-08-04T21:35:17.384Z,72.90
2017-08-04T21:37:44.902Z,72.70
2017-08-04T21:40:12.410Z,73.00
2017-08-04T21:42:39.963Z,73.20
2017-08-04T21:45:07.467Z,72.80
2017-08-04T21:47:34.991Z,72.80
2017-08-04T21:50:02.536Z,72.40
2017-08-04T21:52:30.085Z,72.60
2017-08-04T21:54:57.589Z,73.10
2017-08-04T21:57:25.212Z,72.90
2017-08-04T21:59:52.776Z,72.90
2017-08-04T22:02:20.275Z,72.60
2017-08-04T22:04:47.799Z,72.70
2017-08-04T22:07:15.342Z,73.60
2017-08-04T22:09:42.868Z,74.00
2017-08-04T22:12:11.138Z,74.30
2017-08-04T22:14:38.663Z,74.30
2017-08-04T22:17:06.163Z,74.60
2017-08-04T22:19:34.451Z,75.20
2017-08-04T22:22:02.955Z,75.70
2017-08-04T22:24:30.506Z,75.50
2017-08-04T22:26:58.071Z,75.10
2017-08-04T22:29:25.576Z,74.90
2017-08-04T22:31:53.099Z,75.60
2017-08-04T22:34:20.602Z,75.10
2017-08-04T22:36:48.199Z,75.20
2017-08-04T22:39:15.705Z,74.70
2017-08-04T22:41:43.318Z,74.70
2017-08-04T22:44:11.122Z,74.40
2017-08-04T22:46:38.643Z,74.10
2017-08-04T22:49:06.295Z,74.30
2017-08-04T22:51:33.811Z,74.00
2017-08-04T22:54:01.319Z,74.00
2017-08-04T22:56:28.860Z,73.80
2017-08-04T22:58:57.150Z,74.60
2017-08-04T23:01:24.716Z,74.60
2017-08-04T23:03:52.274Z,75.20
2017-08-04T23:06:19.780Z,75.70
2017-08-04T23:08:47.299Z,76.00
2017-08-04T23:11:15.015Z,76.10
2017-08-04T23:13:42.611Z,76.40
2017-08-04T23:16:10.115Z,76.40
2017-08-04T23:18:37.830Z,76.50
2017-08-04T23:21:05.340Z,76.80
2017-08-04T23:23:32.858Z,77.10
2017-08-04T23:26:00.368Z,77.00
2017-08-04T23:28:27.896Z,77.20
2017-08-04T23:30:55.402Z,77.10
2017-08-04T23:33:23.670Z,78.30
2017-08-04T23:35:51.975Z,77.70
2017-08-04T23:38:19.478Z,77.70
2017-08-04T23:40:47.087Z,78.00
2017-08-04T23:43:14.586Z,77.80
2017-08-04T23:45:42.202Z,77.70
2017-08-04T23:48:09.703Z,77.40
2017-08-04T23:50:37.219Z,78.50
2017-08-04T23:53:04.783Z,78.00
2017-08-04T23:55:32.343Z,78.90
2017-08-04T23:57:59.904Z,78.90
